sensor_id;sensor_type;location;lat;lon;timestamp;pressure;altitude;pressure_sealevel;temperature;humidity
63954;BME280;50128;52.094;5.232;2023-03-25T10:58:41;95439.0;;;-17.27;88.88
63954;BME280;50128;52.094;5.232;2023-03-25T11:01:58;95821.0;;;-15.01;87.31
63954;BME280;50128;52.094;5.232;2023-03-25T11:03:35;96023.0;;;-13.68;88.16
63954;BME280;50128;52.094;5.232;2023-03-25T11:05:17;96077.0;;;-13.26;86.43
63954;BME280;50128;52.094;5.232;2023-03-25T11:06:56;96147.0;;;-12.9;85.79
63954;BME280;50128;52.094;5.232;2023-03-25T11:10:15;96154.0;;;-12.79;85.83
63954;BME280;50128;52.094;5.232;2023-03-25T11:11:53;96156.0;;;-12.83;85.85
63954;BME280;50128;52.094;5.232;2023-03-25T11:13:30;96168.0;;;-12.8;83.96
63954;BME280;50128;52.094;5.232;2023-03-25T11:16:53;96174.0;;;-12.82;84.32
63954;BME280;50128;52.094;5.232;2023-03-25T11:18:34;96179.0;;;-12.58;85.76
63954;BME280;50128;52.094;5.232;2023-03-25T11:20:18;96185.0;;;-12.45;84.62
63954;BME280;50128;52.094;5.232;2023-03-25T11:21:59;96193.0;;;-12.36;86.08
63954;BME280;50128;52.094;5.232;2023-03-25T11:25:23;96191.0;;;-12.39;86.21
63954;BME280;50128;52.094;5.232;2023-03-25T11:27:01;96189.0;;;-12.23;86.42
63954;BME280;50128;52.094;5.232;2023-03-25T11:28:39;96231.0;;;-12.19;85.5
63954;BME280;50128;52.094;5.232;2023-03-25T11:30:19;96248.0;;;-12.3;84.83
63954;BME280;50128;52.094;5.232;2023-03-25T11:33:41;96241.0;;;-12.22;84.04
63954;BME280;50128;52.094;5.232;2023-03-25T11:35:22;96232.0;;;-12.3;84.16
63954;BME280;50128;52.094;5.232;2023-03-25T11:37:05;96234.0;;;-12.34;84.23
63954;BME280;50128;52.094;5.232;2023-03-25T11:38:45;96235.0;;;-12.34;84.57
63954;BME280;50128;52.094;5.232;2023-03-25T11:40:27;96232.0;;;-12.32;84.44
63954;BME280;50128;52.094;5.232;2023-03-25T11:43:55;96239.0;;;-12.19;84.2
63954;BME280;50128;52.094;5.232;2023-03-25T11:45:33;96241.0;;;-12.24;83.3
63954;BME280;50128;52.094;5.232;2023-03-25T11:47:15;96229.0;;;-12.29;82.7
63954;BME280;50128;52.094;5.232;2023-03-25T11:49:07;96242.0;;;-12.29;85.26
63954;BME280;50128;52.094;5.232;2023-03-25T11:52:24;96274.0;;;-12.08;85.94
63954;BME280;50128;52.094;5.232;2023-03-25T11:54:05;96262.0;;;-12.13;85.26
63954;BME280;50128;52.094;5.232;2023-03-25T11:55:45;96271.0;;;-11.95;85.78
63954;BME280;50128;52.094;5.232;2023-03-25T11:57:25;96270.0;;;-11.96;84.12
63954;BME280;50128;52.094;5.232;2023-03-25T12:00:46;96257.0;;;-11.98;82.63
63954;BME280;50128;52.094;5.232;2023-03-25T12:02:25;96259.0;;;-11.88;82.92
63954;BME280;50128;52.094;5.232;2023-03-25T12:04:09;96269.0;;;-11.95;80.2
63954;BME280;50128;52.094;5.232;2023-03-25T12:05:57;96247.0;;;-11.98;80.41
63954;BME280;50128;52.094;5.232;2023-03-25T12:07:44;96254.0;;;-11.96;80.06
63954;BME280;50128;52.094;5.232;2023-03-25T12:11:00;96246.0;;;-11.9;81.05
63954;BME280;50128;52.094;5.232;2023-03-25T12:12:48;96232.0;;;-11.89;82.84
63954;BME280;50128;52.094;5.232;2023-03-25T12:14:38;96236.0;;;-11.9;81.37
63954;BME280;50128;52.094;5.232;2023-03-25T12:16:28;96232.0;;;-11.66;81.56
63954;BME280;50128;52.094;5.232;2023-03-25T12:18:25;96241.0;;;-11.5;80.03
63954;BME280;50128;52.094;5.232;2023-03-25T12:20:24;96251.0;;;-11.24;76.99
63954;BME280;50128;52.094;5.232;2023-03-25T12:24:04;96246.0;;;-11.38;76.39
63954;BME280;50128;52.094;5.232;2023-03-25T12:25:53;96255.0;;;-11.29;77.3
63954;BME280;50128;52.094;5.232;2023-03-25T12:27:43;96252.0;;;-11.1;77.91
63954;BME280;50128;52.094;5.232;2023-03-25T12:29:34;96265.0;;;-10.95;76.03
63954;BME280;50128;52.094;5.232;2023-03-25T12:31:25;96264.0;;;-10.77;76.3
63954;BME280;50128;52.094;5.232;2023-03-25T12:33:18;96261.0;;;-11.02;75.75
63954;BME280;50128;52.094;5.232;2023-03-25T12:35:08;96313.0;;;-10.86;75.77
63954;BME280;50128;52.094;5.232;2023-03-25T12:36:58;96308.0;;;-10.79;75.61
63954;BME280;50128;52.094;5.232;2023-03-25T12:40:38;96326.0;;;-10.98;73.53
63954;BME280;50128;52.094;5.232;2023-03-25T12:42:31;96299.0;;;-11.08;75.08
63954;BME280;50128;52.094;5.232;2023-03-25T12:44:21;96344.0;;;-11.12;75.39
63954;BME280;50128;52.094;5.232;2023-03-25T12:46:15;96332.0;;;-11.06;75.53
63954;BME280;50128;52.094;5.232;2023-03-25T12:48:05;96324.0;;;-11.07;74.39
63954;BME280;50128;52.094;5.232;2023-03-25T12:49:59;96315.0;;;-11.03;75.08
63954;BME280;50128;52.094;5.232;2023-03-25T12:52:00;96309.0;;;-11.04;74.56
63954;BME280;50128;52.094;5.232;2023-03-25T12:53:47;96336.0;;;-10.78;74.69
63954;BME280;50128;52.094;5.232;2023-03-25T12:58:41;96344.0;;;-10.8;72.91
63954;BME280;50128;52.094;5.232;2023-03-25T13:00:30;96321.0;;;-10.65;74.09
63954;BME280;50128;52.094;5.232;2023-03-25T13:02:21;96322.0;;;-10.69;74.02
63954;BME280;50128;52.094;5.232;2023-03-25T13:04:18;96337.0;;;-10.53;73.2
63954;BME280;50128;52.094;5.232;2023-03-25T13:07:54;96309.0;;;-10.41;73.09
63954;BME280;50128;52.094;5.232;2023-03-25T13:09:47;96333.0;;;-10.35;70.84
63954;BME280;50128;52.094;5.232;2023-03-25T13:11:30;96313.0;;;-10.21;71.28
63954;BME280;50128;52.094;5.232;2023-03-25T13:13:13;96260.0;;;-10.51;71.55
63954;BME280;50128;52.094;5.232;2023-03-25T13:14:55;96270.0;;;-10.32;71.49
63954;BME280;50128;52.094;5.232;2023-03-25T13:16:37;96249.0;;;-10.29;70.52
63954;BME280;50128;52.094;5.232;2023-03-25T13:19:58;96273.0;;;-10.57;70.06
63954;BME280;50128;52.094;5.232;2023-03-25T13:21:39;96297.0;;;-10.71;72.38
63954;BME280;50128;52.094;5.232;2023-03-25T13:23:20;96285.0;;;-11.03;75.37
63954;BME280;50128;52.094;5.232;2023-03-25T13:25:00;96297.0;;;-11.02;77.81
63954;BME280;50128;52.094;5.232;2023-03-25T13:28:22;96291.0;;;-11.11;77.17
63954;BME280;50128;52.094;5.232;2023-03-25T13:30:02;96311.0;;;-10.74;77.67
63954;BME280;50128;52.094;5.232;2023-03-25T13:31:42;96306.0;;;-10.78;74.83
63954;BME280;50128;52.094;5.232;2023-03-25T13:33:23;96308.0;;;-10.55;75.11
63954;BME280;50128;52.094;5.232;2023-03-25T13:36:52;96311.0;;;-10.47;72.91
63954;BME280;50128;52.094;5.232;2023-03-25T13:38:37;96325.0;;;-10.62;71.47
63954;BME280;50128;52.094;5.232;2023-03-25T13:40:23;96319.0;;;-10.69;71.02
63954;BME280;50128;52.094;5.232;2023-03-25T13:42:05;96330.0;;;-10.63;71.83
63954;BME280;50128;52.094;5.232;2023-03-25T13:45:40;96326.0;;;-10.69;71.06
63954;BME280;50128;52.094;5.232;2023-03-25T13:47:24;96314.0;;;-10.57;71.77
63954;BME280;50128;52.094;5.232;2023-03-25T13:49:12;96316.0;;;-10.41;71.44
63954;BME280;50128;52.094;5.232;2023-03-25T13:50:51;96303.0;;;-10.65;71.44
63954;BME280;50128;52.094;5.232;2023-03-25T13:52:33;96317.0;;;-10.76;71.25
63954;BME280;50128;52.094;5.232;2023-03-25T13:56:00;96317.0;;;-10.84;73.16
63954;BME280;50128;52.094;5.232;2023-03-25T13:58:37;96322.0;;;-10.95;75.02
63954;BME280;50128;52.094;5.232;2023-03-25T14:01:24;96325.0;;;-11.44;80.49
63954;BME280;50128;52.094;5.232;2023-03-25T14:04:00;96331.0;;;-11.74;85.08
63954;BME280;50128;52.094;5.232;2023-03-25T14:07:33;96332.0;;;-12.45;89.98
63954;BME280;50128;52.094;5.232;2023-03-25T14:08:40;96332.0;;;-12.45;89.98
63954;BME280;50128;52.094;5.232;2023-03-25T14:09:26;96344.0;;;-12.68;90.67
63954;BME280;50128;52.094;5.232;2023-03-25T14:10:24;96344.0;;;-12.68;90.67
63954;BME280;50128;52.094;5.232;2023-03-25T14:11:20;96332.0;;;-13.1;90.99
63954;BME280;50128;52.094;5.232;2023-03-25T14:14:44;96330.0;;;-13.21;93.39
63954;BME280;50128;52.094;5.232;2023-03-25T14:16:23;96311.0;;;-13.34;93.12
63954;BME280;50128;52.094;5.232;2023-03-25T14:18:03;96299.0;;;-13.3;96.53
63954;BME280;50128;52.094;5.232;2023-03-25T14:19:43;96296.0;;;-13.08;95.41
63954;BME280;50128;52.094;5.232;2023-03-25T14:23:11;96291.0;;;-12.86;96.42
63954;BME280;50128;52.094;5.232;2023-03-25T14:24:50;96271.0;;;-13.01;95.99
63954;BME280;50128;52.094;5.232;2023-03-25T14:26:26;96266.0;;;-12.97;95.48
63954;BME280;50128;52.094;5.232;2023-03-25T14:28:03;96255.0;;;-12.82;94.59
63954;BME280;50128;52.094;5.232;2023-03-25T14:31:31;96243.0;;;-12.79;96.29
63954;BME280;50128;52.094;5.232;2023-03-25T14:33:09;96246.0;;;-12.62;95.27
63954;BME280;50128;52.094;5.232;2023-03-25T14:34:46;96247.0;;;-12.43;96.06
63954;BME280;50128;52.094;5.232;2023-03-25T14:36:27;96239.0;;;-12.63;90.07
63954;BME280;50128;52.094;5.232;2023-03-25T14:39:56;96241.0;;;-12.56;90.27
63954;BME280;50128;52.094;5.232;2023-03-25T14:42:10;96233.0;;;-12.48;88.03
63954;BME280;50128;52.094;5.232;2023-03-25T14:44:09;96248.0;;;-12.28;89.08
63954;BME280;50128;52.094;5.232;2023-03-25T14:46:02;96243.0;;;-12.09;87.16
63954;BME280;50128;52.094;5.232;2023-03-25T14:47:50;96220.0;;;-12.29;82.47
63954;BME280;50128;52.094;5.232;2023-03-25T14:49:46;96217.0;;;-12.23;82.32
63954;BME280;50128;52.094;5.232;2023-03-25T14:51:44;96212.0;;;-12.26;80.86
63954;BME280;50128;52.094;5.232;2023-03-25T14:53:21;96192.0;;;-12.43;79.92
63954;BME280;50128;52.094;5.232;2023-03-25T14:54:58;96191.0;;;-12.65;79.16
63954;BME280;50128;52.094;5.232;2023-03-25T14:58:23;96189.0;;;-12.69;79.86
63954;BME280;50128;52.094;5.232;2023-03-25T15:00:03;96178.0;;;-12.68;79.3
63954;BME280;50128;52.094;5.232;2023-03-25T15:01:42;96153.0;;;-12.81;79.88
63954;BME280;50128;52.094;5.232;2023-03-25T15:03:20;96123.0;;;-12.88;78.84
63954;BME280;50128;52.094;5.232;2023-03-25T15:06:38;96138.0;;;-13.03;78.91
63954;BME280;50128;52.094;5.232;2023-03-25T15:08:23;96066.0;;;-13.33;78.34
63954;BME280;50128;52.094;5.232;2023-03-25T15:10:01;96079.0;;;-13.3;79.03
63954;BME280;50128;52.094;5.232;2023-03-25T15:11:41;96003.0;;;-13.59;78.3
63954;BME280;50128;52.094;5.232;2023-03-25T15:15:22;95985.0;;;-13.8;76.36
63954;BME280;50128;52.094;5.232;2023-03-25T15:17:05;95937.0;;;-14.21;76.33
63954;BME280;50128;52.094;5.232;2023-03-25T15:18:59;95873.0;;;-14.84;76.58
63954;BME280;50128;52.094;5.232;2023-03-25T15:21:01;95881.0;;;-14.77;75.7
63954;BME280;50128;52.094;5.232;2023-03-25T15:22:37;95898.0;;;-14.55;75.91
63954;BME280;50128;52.094;5.232;2023-03-25T15:24:14;95853.0;;;-14.82;74.16
63954;BME280;50128;52.094;5.232;2023-03-25T15:27:58;95690.0;;;-16.14;71.16
63954;BME280;50128;52.094;5.232;2023-03-25T15:29:52;95278.0;;;-19.05;70.62
63954;BME280;50128;52.094;5.232;2023-03-25T15:38:00;95896.0;;;-15.79;76.08
63954;BME280;50128;52.094;5.232;2023-03-25T15:39:53;95762.0;;;-16.59;76.49
63954;BME280;50128;52.094;5.232;2023-03-25T15:42:01;95585.0;;;-18.02;78.36
63954;BME280;50128;52.094;5.232;2023-03-25T15:46:57;94303.0;;;-26.14;79.89
63954;BME280;50128;52.094;5.232;2023-03-25T16:24:11;96284.0;;;-12.99;81.66
63954;BME280;50128;52.094;5.232;2023-03-25T16:25:48;96377.0;;;-12.5;81.66
63954;BME280;50128;52.094;5.232;2023-03-25T16:27:29;96416.0;;;-12.25;83.93
63954;BME280;50128;52.094;5.232;2023-03-25T16:29:14;96410.0;;;-12.49;83.78
63954;BME280;50128;52.094;5.232;2023-03-25T16:32:32;96452.0;;;-12.2;85.44
63954;BME280;50128;52.094;5.232;2023-03-25T16:34:12;96431.0;;;-12.72;87.47
63954;BME280;50128;52.094;5.232;2023-03-25T16:35:55;96412.0;;;-13.08;90.35
63954;BME280;50128;52.094;5.232;2023-03-25T16:37:33;96428.0;;;-13.49;94.36
63954;BME280;50128;52.094;5.232;2023-03-25T16:41:00;96429.0;;;-13.52;97.15
63954;BME280;50128;52.094;5.232;2023-03-25T16:42:37;96438.0;;;-13.55;99.09
63954;BME280;50128;52.094;5.232;2023-03-25T16:44:15;96435.0;;;-13.72;100.0
63954;BME280;50128;52.094;5.232;2023-03-25T16:45:55;96438.0;;;-13.67;100.0
63954;BME280;50128;52.094;5.232;2023-03-25T16:49:12;96443.0;;;-13.79;100.0
63954;BME280;50128;52.094;5.232;2023-03-25T16:50:51;96434.0;;;-13.78;100.0
63954;BME280;50128;52.094;5.232;2023-03-25T16:52:31;96435.0;;;-13.87;100.0
63954;BME280;50128;52.094;5.232;2023-03-25T16:55:56;96439.0;;;-13.87;100.0
63954;BME280;50128;52.094;5.232;2023-03-25T16:57:39;96445.0;;;-13.85;100.0
63954;BME280;50128;52.094;5.232;2023-03-25T16:59:18;96439.0;;;-13.94;100.0
63954;BME280;50128;52.094;5.232;2023-03-25T17:01:08;96446.0;;;-13.87;100.0
63954;BME280;50128;52.094;5.232;2023-03-25T17:02:47;96443.0;;;-13.82;100.0
63954;BME280;50128;52.094;5.232;2023-03-25T17:06:06;96441.0;;;-13.91;100.0
63954;BME280;50128;52.094;5.232;2023-03-25T17:07:44;96445.0;;;-13.98;100.0
63954;BME280;50128;52.094;5.232;2023-03-25T17:09:24;96458.0;;;-13.85;100.0
63954;BME280;50128;52.094;5.232;2023-03-25T17:11:01;96452.0;;;-13.87;100.0
63954;BME280;50128;52.094;5.232;2023-03-25T17:14:19;96446.0;;;-13.91;100.0
63954;BME280;50128;52.094;5.232;2023-03-25T17:15:56;96419.0;;;-14.1;100.0
63954;BME280;50128;52.094;5.232;2023-03-25T17:17:38;96431.0;;;-14.01;100.0
63954;BME280;50128;52.094;5.232;2023-03-25T17:19:18;96431.0;;;-14.06;100.0
63954;BME280;50128;52.094;5.232;2023-03-25T17:22:36;96406.0;;;-14.19;100.0
63954;BME280;50128;52.094;5.232;2023-03-25T17:24:21;96403.0;;;-14.15;100.0
63954;BME280;50128;52.094;5.232;2023-03-25T17:26:00;96412.0;;;-14.08;100.0
63954;BME280;50128;52.094;5.232;2023-03-25T17:29:14;96399.0;;;-14.18;100.0
63954;BME280;50128;52.094;5.232;2023-03-25T17:30:50;96393.0;;;-14.18;100.0
63954;BME280;50128;52.094;5.232;2023-03-25T17:32:26;96382.0;;;-14.32;100.0
63954;BME280;50128;52.094;5.232;2023-03-25T17:34:05;96381.0;;;-14.35;100.0
63954;BME280;50128;52.094;5.232;2023-03-25T17:37:26;96371.0;;;-14.62;100.0
63954;BME280;50128;52.094;5.232;2023-03-25T17:39:12;96361.0;;;-14.67;100.0
63954;BME280;50128;52.094;5.232;2023-03-25T17:41:03;96370.0;;;-14.59;100.0
63954;BME280;50128;52.094;5.232;2023-03-25T17:42:40;96373.0;;;-14.58;100.0
63954;BME280;50128;52.094;5.232;2023-03-25T17:45:53;96373.0;;;-14.69;100.0
63954;BME280;50128;52.094;5.232;2023-03-25T17:47:29;96337.0;;;-14.94;100.0
63954;BME280;50128;52.094;5.232;2023-03-25T17:49:10;96334.0;;;-14.88;100.0
63954;BME280;50128;52.094;5.232;2023-03-25T17:50:50;96327.0;;;-14.91;100.0
63954;BME280;50128;52.094;5.232;2023-03-25T17:54:05;96317.0;;;-14.94;100.0
63954;BME280;50128;52.094;5.232;2023-03-25T17:55:41;96326.0;;;-15.09;100.0
63954;BME280;50128;52.094;5.232;2023-03-25T17:57:18;96319.0;;;-15.07;100.0
63954;BME280;50128;52.094;5.232;2023-03-25T18:00:35;96311.0;;;-15.18;100.0
63954;BME280;50128;52.094;5.232;2023-03-25T18:02:12;96355.0;;;-15.01;100.0
63954;BME280;50128;52.094;5.232;2023-03-25T18:03:49;96330.0;;;-15.03;100.0
63954;BME280;50128;52.094;5.232;2023-03-25T18:05:25;96338.0;;;-14.95;100.0
63954;BME280;50128;52.094;5.232;2023-03-25T18:08:38;96334.0;;;-15.04;100.0
63954;BME280;50128;52.094;5.232;2023-03-25T18:10:16;96334.0;;;-15.13;100.0
63954;BME280;50128;52.094;5.232;2023-03-25T18:11:55;96327.0;;;-15.25;100.0
63954;BME280;50128;52.094;5.232;2023-03-25T18:15:09;96327.0;;;-15.28;100.0
63954;BME280;50128;52.094;5.232;2023-03-25T18:16:45;96332.0;;;-15.29;100.0
63954;BME280;50128;52.094;5.232;2023-03-25T18:18:23;96310.0;;;-15.49;100.0
63954;BME280;50128;52.094;5.232;2023-03-25T18:20:01;96269.0;;;-15.79;100.0
63954;BME280;50128;52.094;5.232;2023-03-25T18:23:21;96238.0;;;-16.1;100.0
63954;BME280;50128;52.094;5.232;2023-03-25T18:24:57;96189.0;;;-16.36;100.0
63954;BME280;50128;52.094;5.232;2023-03-25T18:26:33;96196.0;;;-16.3;100.0
63954;BME280;50128;52.094;5.232;2023-03-25T18:29:47;96177.0;;;-16.51;100.0
63954;BME280;50128;52.094;5.232;2023-03-25T18:31:23;96193.0;;;-16.55;100.0
63954;BME280;50128;52.094;5.232;2023-03-25T18:33:00;96181.0;;;-16.63;100.0
63954;BME280;50128;52.094;5.232;2023-03-25T18:34:36;96188.0;;;-16.55;100.0
63954;BME280;50128;52.094;5.232;2023-03-25T18:37:49;96179.0;;;-16.72;100.0
63954;BME280;50128;52.094;5.232;2023-03-25T18:39:26;96162.0;;;-16.89;100.0
63954;BME280;50128;52.094;5.232;2023-03-25T18:41:03;96116.0;;;-17.15;100.0
63954;BME280;50128;52.094;5.232;2023-03-25T18:44:15;96144.0;;;-17.0;100.0
63954;BME280;50128;52.094;5.232;2023-03-25T18:45:52;96148.0;;;-16.99;100.0
63954;BME280;50128;52.094;5.232;2023-03-25T18:47:28;96096.0;;;-17.15;100.0
63954;BME280;50128;52.094;5.232;2023-03-25T18:50:49;96103.0;;;-17.14;100.0
63954;BME280;50128;52.094;5.232;2023-03-25T18:52:26;96102.0;;;-17.12;100.0
63954;BME280;50128;52.094;5.232;2023-03-25T18:54:03;96010.0;;;-17.75;100.0
63954;BME280;50128;52.094;5.232;2023-03-25T18:55:41;95962.0;;;-18.05;100.0
63954;BME280;50128;52.094;5.232;2023-03-25T18:58:55;95952.0;;;-18.18;100.0
63954;BME280;50128;52.094;5.232;2023-03-25T19:00:34;95906.0;;;-18.59;100.0
63954;BME280;50128;52.094;5.232;2023-03-25T19:02:11;95878.0;;;-18.66;100.0
63954;BME280;50128;52.094;5.232;2023-03-25T19:05:24;95712.0;;;-19.75;100.0
63954;BME280;50128;52.094;5.232;2023-03-25T19:07:00;95150.0;;;-23.14;100.0
63954;BME280;50128;52.094;5.232;2023-03-25T19:08:37;96068.0;;;-17.44;100.0
63954;BME280;50128;52.094;5.232;2023-03-25T19:10:16;95778.0;;;-19.2;100.0
63954;BME280;50128;52.094;5.232;2023-03-25T19:13:29;95370.0;;;-21.82;100.0
63954;BME280;50128;52.094;5.232;2023-03-25T19:15:06;95688.0;;;-19.83;100.0
63954;BME280;50128;52.094;5.232;2023-03-25T19:16:42;93201.0;;;-35.31;100.0
63954;BME280;50128;52.094;5.232;2023-03-25T19:34:28;95765.0;;;-19.21;100.0
63954;BME280;50128;52.094;5.232;2023-03-25T19:36:05;95625.0;;;-20.19;100.0
63954;BME280;50128;52.094;5.232;2023-03-25T19:37:42;95180.0;;;-22.81;100.0
63954;BME280;50128;52.094;5.232;2023-03-25T19:57:18;95502.0;;;-20.91;100.0
63954;BME280;50128;52.094;5.232;2023-03-25T19:58:53;95557.0;;;-20.51;100.0
63954;BME280;50128;52.094;5.232;2023-03-25T20:00:30;95372.0;;;-21.67;100.0
63954;BME280;50128;52.094;5.232;2023-03-25T20:03:42;95225.0;;;-22.68;100.0
63954;BME280;50128;52.094;5.232;2023-03-25T20:05:20;94666.0;;;-26.15;100.0
63954;BME280;50128;52.094;5.232;2023-03-25T20:06:56;94726.0;;;-25.82;100.0
63954;BME280;50128;52.094;5.232;2023-03-25T20:10:14;95010.0;;;-24.09;100.0
63954;BME280;50128;52.094;5.232;2023-03-25T21:33:57;96381.0;;;-16.28;100.0
63954;BME280;50128;52.094;5.232;2023-03-25T21:35:34;96487.0;;;-15.56;100.0
63954;BME280;50128;52.094;5.232;2023-03-25T21:37:10;96552.0;;;-15.23;100.0
63954;BME280;50128;52.094;5.232;2023-03-25T21:38:46;96575.0;;;-15.13;100.0
63954;BME280;50128;52.094;5.232;2023-03-25T21:41:58;96572.0;;;-15.16;100.0
63954;BME280;50128;52.094;5.232;2023-03-25T21:43:37;96578.0;;;-15.1;100.0
63954;BME280;50128;52.094;5.232;2023-03-25T21:45:15;96574.0;;;-15.3;100.0
63954;BME280;50128;52.094;5.232;2023-03-25T21:48:28;96583.0;;;-15.35;100.0
63954;BME280;50128;52.094;5.232;2023-03-25T21:50:06;96551.0;;;-15.55;100.0
63954;BME280;50128;52.094;5.232;2023-03-25T21:51:43;96565.0;;;-15.51;100.0
63954;BME280;50128;52.094;5.232;2023-03-25T21:53:19;96537.0;;;-15.68;100.0
63954;BME280;50128;52.094;5.232;2023-03-25T21:56:31;96506.0;;;-15.95;100.0
63954;BME280;50128;52.094;5.232;2023-03-25T21:58:07;96509.0;;;-15.95;100.0
63954;BME280;50128;52.094;5.232;2023-03-25T21:59:43;96495.0;;;-16.01;100.0
63954;BME280;50128;52.094;5.232;2023-03-25T22:03:00;96480.0;;;-16.24;100.0
63954;BME280;50128;52.094;5.232;2023-03-25T22:04:36;96503.0;;;-16.11;100.0
63954;BME280;50128;52.094;5.232;2023-03-25T22:06:14;96492.0;;;-16.13;100.0
63954;BME280;50128;52.094;5.232;2023-03-25T22:09:32;96483.0;;;-16.24;100.0
63954;BME280;50128;52.094;5.232;2023-03-25T22:11:10;96475.0;;;-16.32;100.0
63954;BME280;50128;52.094;5.232;2023-03-25T22:12:48;96480.0;;;-16.2;100.0
63954;BME280;50128;52.094;5.232;2023-03-25T22:14:24;96462.0;;;-16.42;100.0
63954;BME280;50128;52.094;5.232;2023-03-25T22:17:36;96452.0;;;-16.51;100.0
63954;BME280;50128;52.094;5.232;2023-03-25T22:19:12;96454.0;;;-16.52;100.0
63954;BME280;50128;52.094;5.232;2023-03-25T22:20:49;96420.0;;;-16.72;100.0
63954;BME280;50128;52.094;5.232;2023-03-25T22:24:03;96342.0;;;-17.2;100.0
63954;BME280;50128;52.094;5.232;2023-03-25T22:25:40;96287.0;;;-17.47;100.0
63954;BME280;50128;52.094;5.232;2023-03-25T22:27:17;96251.0;;;-17.68;100.0
63954;BME280;50128;52.094;5.232;2023-03-25T22:28:54;96184.0;;;-18.03;100.0
63954;BME280;50128;52.094;5.232;2023-03-25T22:32:07;96060.0;;;-18.85;100.0
63954;BME280;50128;52.094;5.232;2023-03-25T22:33:44;95848.0;;;-20.16;100.0
63954;BME280;50128;52.094;5.232;2023-03-25T22:35:20;94618.0;;;-27.65;100.0
63954;BME280;50128;52.094;5.232;2023-03-25T22:48:10;95384.0;;;-22.78;100.0
63954;BME280;50128;52.094;5.232;2023-03-25T22:51:22;95637.0;;;-21.23;100.0
63954;BME280;50128;52.094;5.232;2023-03-25T22:52:58;95841.0;;;-19.98;100.0
63954;BME280;50128;52.094;5.232;2023-03-25T22:54:35;95845.0;;;-19.93;100.0
63954;BME280;50128;52.094;5.232;2023-03-25T22:56:11;95672.0;;;-21.05;100.0
